| time (UTC) | temp F | wind direction | speed MPH | gust MPH | rain 1hr in | rain 24hr in | rain mn in | humidity % | barometer mb |
| 20260507155645 | 60 | 244 | 14.0 | 23.0 | 0.00 | 0.00 | 0.00 | 51 | 1018.2 |
| 20260507154644 | 59 | 248 | 20.0 | 24.0 | 0.00 | 0.00 | 0.00 | 54 | 1018.1 |
| 20260507153644 | 59 | 225 | 9.0 | 16.0 | 0.00 | 0.00 | 0.00 | 56 | 1018.1 |
| 20260507152642 | 58 | 228 | 13.0 | 22.0 | 0.00 | 0.00 | 0.00 | 56 | 1018.4 |
| 20260507151640 | 57 | 256 | 19.0 | 26.0 | 0.00 | 0.00 | 0.00 | 59 | 1018.7 |
| 20260507150639 | 57 | 246 | 13.0 | 21.0 | 0.00 | 0.00 | 0.00 | 60 | 1018.7 |
| 20260507145637 | 56 | 236 | 11.0 | 22.0 | 0.00 | 0.00 | 0.00 | 62 | 1018.7 |
| 20260507144637 | 55 | 244 | 15.0 | 26.0 | 0.00 | 0.00 | 0.00 | 63 | 1018.7 |
| 20260507143637 | 55 | 227 | 12.0 | 20.0 | 0.00 | 0.00 | 0.00 | 64 | 1018.9 |
| 20260507142636 | 54 | 236 | 13.0 | 24.0 | 0.00 | 0.00 | 0.00 | 67 | 1019.2 |
| 20260507141635 | 53 | 259 | 14.0 | 24.0 | 0.00 | 0.00 | 0.00 | 70 | 1019.2 |
| 20260507140634 | 52 | 245 | 20.0 | 26.0 | 0.00 | 0.00 | 0.00 | 73 | 1019.2 |
| 20260507135634 | 52 | 235 | 14.0 | 23.0 | 0.00 | 0.00 | 0.00 | 74 | 1019.6 |
| 20260507134633 | 51 | 234 | 9.0 | 18.0 | 0.00 | 0.00 | 0.00 | 78 | 1019.5 |
| 20260507133631 | 50 | 244 | 9.0 | 14.0 | 0.00 | 0.00 | 0.00 | 81 | 1019.6 |
| 20260507132632 | 49 | 235 | 7.0 | 17.0 | 0.00 | 0.00 | 0.00 | 82 | 1019.5 |
| 20260507131630 | 47 | 242 | 11.0 | 19.0 | 0.00 | 0.00 | 0.00 | 85 | 1019.6 |
| 20260507130630 | 46 | 217 | 4.0 | 11.0 | 0.00 | 0.00 | 0.00 | 87 | 1019.6 |
| 20260507125627 | 45 | 225 | 11.0 | 11.0 | 0.00 | 0.00 | 0.00 | 88 | 1019.7 |
| 20260507124626 | 44 | 231 | 6.0 | 8.0 | 0.00 | 0.00 | 0.00 | 89 | 1019.6 |
| 20260507123622 | 43 | 216 | 5.0 | 11.0 | 0.00 | 0.00 | 0.00 | 91 | 1019.3 |
| 20260507122619 | 42 | 222 | 3.0 | 9.0 | 0.00 | 0.00 | 0.00 | 92 | 1019.2 |
| 20260507121617 | 41 | 202 | 3.0 | 7.0 | 0.00 | 0.00 | 0.00 | 94 | 1019.4 |
| 20260507120615 | 40 | 223 | 4.0 | 5.0 | 0.00 | 0.00 | 0.00 | 94 | 1019.4 |
| 20260507115615 | 40 | 228 | 5.0 | 6.0 | 0.00 | 0.00 | 0.00 | 95 | 1019.4 |
| 20260507114613 | 39 | 205 | 2.0 | 5.0 | 0.00 | 0.00 | 0.00 | 95 | 1019.3 |
| 20260507113607 | 39 | 217 | 0.0 | 4.0 | 0.00 | 0.00 | 0.00 | 94 | 1019.2 |
| 20260507112602 | 39 | 193 | 0.0 | 4.0 | 0.00 | 0.00 | 0.00 | 94 | 1019.7 |
| 20260507111601 | 39 | 224 | 2.0 | 3.0 | 0.00 | 0.00 | 0.00 | 94 | 1019.2 |
| 20260507110600 | 39 | 234 | 2.0 | 4.0 | 0.00 | 0.00 | 0.00 | 94 | 1019.5 |
| 20260507105600 | 39 | 210 | 1.0 | 4.0 | 0.00 | 0.00 | 0.00 | 94 | 1019.7 |
| 20260507104559 | 39 | 210 | 3.0 | 4.0 | 0.00 | 0.00 | 0.00 | 93 | 1019.6 |
| 20260507103557 | 40 | 206 | 3.0 | 5.0 | 0.00 | 0.00 | 0.00 | 93 | 1019.4 |
| 20260507102556 | 41 | 267 | 2.0 | 5.0 | 0.00 | 0.00 | 0.00 | 94 | 1019.2 |
| 20260507101554 | 40 | 241 | 2.0 | 3.0 | 0.00 | 0.00 | 0.00 | 94 | 1019.6 |
| 20260507100554 | 40 | 288 | 0.0 | 3.0 | 0.00 | 0.00 | 0.00 | 93 | 1019.6 |
| 20260507095549 | 41 | 236 | 2.0 | 3.0 | 0.00 | 0.00 | 0.00 | 92 | 1019.7 |
| 20260507094548 | 41 | 242 | 2.0 | 3.0 | 0.00 | 0.00 | 0.00 | 92 | 1019.7 |
| 20260507093549 | 41 | 218 | 2.0 | 3.0 | 0.00 | 0.00 | 0.00 | 92 | 1019.8 |
| 20260507092543 | 41 | 180 | 1.0 | 3.0 | 0.00 | 0.00 | 0.00 | 91 | 1019.8 |
| 20260507091543 | 41 | 240 | 2.0 | 4.0 | 0.00 | 0.00 | 0.00 | 90 | 1020.0 |
| 20260507090540 | 42 | 229 | 2.0 | 3.0 | 0.00 | 0.00 | 0.00 | 89 | 1019.9 |
| 20260507085540 | 43 | 263 | 3.0 | 4.0 | 0.00 | 0.00 | 0.00 | 88 | 1020.0 |
| 20260507084539 | 43 | 252 | 3.0 | 5.0 | 0.00 | 0.00 | 0.00 | 88 | 1020.2 |
| 20260507083538 | 43 | 258 | 4.0 | 5.0 | 0.00 | 0.00 | 0.00 | 87 | 1020.3 |
| 20260507082537 | 43 | 264 | 6.0 | 7.0 | 0.00 | 0.00 | 0.00 | 87 | 1020.5 |
| 20260507081536 | 44 | 266 | 5.0 | 8.0 | 0.00 | 0.00 | 0.00 | 86 | 1020.4 |
| 20260507080535 | 44 | 259 | 5.0 | 7.0 | 0.00 | 0.00 | 0.00 | 86 | 1020.4 |
| 20260507075533 | 44 | 264 | 5.0 | 7.0 | 0.00 | 0.00 | 0.00 | 85 | 1020.6 |
| 20260507074532 | 44 | 268 | 3.0 | 5.0 | 0.00 | 0.00 | 0.00 | 85 | 1020.5 |
| 20260507073533 | 45 | 265 | 3.0 | 5.0 | 0.00 | 0.00 | 0.00 | 84 | 1020.6 |
| 20260507072533 | 45 | 279 | 3.0 | 4.0 | 0.00 | 0.00 | 0.00 | 84 | 1020.6 |
| 20260507071527 | 45 | 289 | 2.0 | 6.0 | 0.00 | 0.00 | 0.00 | 83 | 1020.7 |
| 20260507070527 | 45 | 296 | 2.0 | 4.0 | 0.00 | 0.00 | 0.00 | 82 | 1021.0 |
| 20260507065526 | 46 | 290 | 2.0 | 4.0 | 0.00 | 0.00 | 0.00 | 81 | 1020.8 |
| 20260507064521 | 46 | 255 | 3.0 | 6.0 | 0.00 | 0.00 | 0.00 | 80 | 1021.2 |
| 20260507063522 | 47 | 271 | 3.0 | 5.0 | 0.00 | 0.00 | 0.00 | 80 | 1021.2 |
| 20260507062521 | 47 | 249 | 3.0 | 5.0 | 0.00 | 0.00 | 0.00 | 79 | 1021.2 |
| 20260507061517 | 48 | 265 | 3.0 | 6.0 | 0.00 | 0.00 | 0.00 | 78 | 1021.2 |
| 20260507060512 | 48 | 260 | 3.0 | 6.0 | 0.00 | 0.00 | 0.00 | 78 | 1021.0 |
| 20260507055509 | 47 | 288 | 2.0 | 3.0 | 0.00 | 0.00 | 0.00 | 78 | 1020.8 |
| 20260507054507 | 48 | 267 | 2.0 | 3.0 | 0.00 | 0.00 | 0.00 | 77 | 1021.3 |
| 20260507053507 | 48 | 256 | 0.0 | 1.0 | 0.00 | 0.00 | 0.00 | 77 | 1021.2 |
| 20260507052503 | 48 | 213 | 2.0 | 3.0 | 0.00 | 0.00 | 0.00 | 76 | 1021.1 |
| 20260507051503 | 48 | 228 | 1.0 | 3.0 | 0.00 | 0.00 | 0.00 | 75 | 1021.3 |
| 20260507050501 | 48 | 250 | 0.0 | 1.0 | 0.00 | 0.00 | 0.00 | 77 | 1021.5 |
| 20260507045501 | 47 | 191 | 0.0 | 2.0 | 0.00 | 0.02 | 0.02 | 80 | 1021.1 |
| 20260507044500 | 47 | 225 | 0.0 | 2.0 | 0.00 | 0.02 | 0.02 | 80 | 1021.3 |
| 20260507043459 | 46 | 124 | 2.0 | 2.0 | 0.00 | 0.02 | 0.02 | 81 | 1021.2 |
| 20260507042458 | 46 | 180 | 0.0 | 1.0 | 0.00 | 0.02 | 0.02 | 83 | 1021.3 |
| 20260507041456 | 46 | 104 | 0.0 | 0.0 | 0.00 | 0.02 | 0.02 | 82 | 1021.0 |
| 20260507040455 | 45 | 104 | 0.0 | 0.0 | 0.00 | 0.02 | 0.02 | 82 | 1021.2 |
| 20260507035454 | 45 | 269 | 0.0 | 1.0 | 0.00 | 0.02 | 0.02 | 82 | 1021.2 |
| 20260507034453 | 45 | 81 | 1.0 | 1.0 | 0.00 | 0.02 | 0.02 | 80 | 1021.2 |
| 20260507033449 | 45 | 77 | 2.0 | 2.0 | 0.00 | 0.02 | 0.02 | 81 | 1021.2 |
| 20260507032448 | 45 | 109 | 2.0 | 2.0 | 0.00 | 0.02 | 0.02 | 80 | 1021.2 |
| 20260507031447 | 44 | 133 | 1.0 | 2.0 | 0.00 | 0.02 | 0.02 | 79 | 1021.3 |
| 20260507030446 | 45 | 107 | 0.0 | 0.0 | 0.00 | 0.02 | 0.02 | 78 | 1021.2 |
| 20260507025441 | 44 | 107 | 0.0 | 1.0 | 0.00 | 0.02 | 0.02 | 77 | 1021.1 |
| 20260507024436 | 45 | 36 | 0.0 | 2.0 | 0.00 | 0.02 | 0.02 | 76 | 1020.8 |
| 20260507023434 | 45 | 55 | 0.0 | 1.0 | 0.00 | 0.02 | 0.02 | 75 | 1020.8 |
| 20260507022435 | 45 | 68 | 1.0 | 2.0 | 0.00 | 0.02 | 0.02 | 74 | 1021.0 |
| 20260507021431 | 46 | 35 | 1.0 | 2.0 | 0.00 | 0.02 | 0.02 | 72 | 1020.8 |
| 20260507020432 | 47 | 66 | 0.0 | 1.0 | 0.00 | 0.02 | 0.02 | 68 | 1020.4 |
| 20260507015427 | 48 | 102 | 1.0 | 2.0 | 0.00 | 0.02 | 0.02 | 65 | 1020.7 |
| 20260507014426 | 50 | 53 | 1.0 | 2.0 | 0.00 | 0.02 | 0.02 | 61 | 1020.5 |
| 20260507013425 | 51 | 15 | 0.0 | 1.0 | 0.00 | 0.02 | 0.02 | 58 | 1020.5 |
| 20260507012425 | 53 | 76 | 1.0 | 2.0 | 0.00 | 0.02 | 0.02 | 55 | 1020.2 |
| 20260507011425 | 54 | 39 | 0.0 | 3.0 | 0.00 | 0.02 | 0.02 | 52 | 1020.1 |
| 20260507010421 | 55 | 338 | 2.0 | 4.0 | 0.00 | 0.02 | 0.02 | 49 | 1020.1 |
| 20260507005421 | 57 | 13 | 2.0 | 5.0 | 0.00 | 0.02 | 0.02 | 46 | 1020.1 |
| 20260507004420 | 56 | 294 | 3.0 | 3.0 | 0.00 | 0.02 | 0.02 | 48 | 1020.1 |
| 20260507003418 | 56 | 4 | 5.0 | 7.0 | 0.00 | 0.02 | 0.02 | 47 | 1019.9 |
| 20260507002416 | 57 | 302 | 3.0 | 8.0 | 0.00 | 0.02 | 0.02 | 46 | 1019.9 |
| 20260507001416 | 57 | 350 | 3.0 | 7.0 | 0.00 | 0.02 | 0.02 | 46 | 1019.7 |
| 20260507000415 | 57 | 13 | 2.0 | 4.0 | 0.00 | 0.02 | 0.02 | 45 | 1019.8 |
| 20260506235414 | 57 | 45 | 3.0 | 7.0 | 0.00 | 0.02 | 0.02 | 45 | 1019.9 |
| 20260506234414 | 57 | 45 | 5.0 | 7.0 | 0.00 | 0.02 | 0.02 | 45 | 1020.0 |
| 20260506233413 | 57 | 16 | 4.0 | 8.0 | 0.00 | 0.02 | 0.02 | 45 | 1020.0 |
| 20260506232412 | 57 | 75 | 3.0 | 6.0 | 0.00 | 0.02 | 0.02 | 45 | 1019.8 |
| 20260506231411 | 57 | 12 | 4.0 | 7.0 | 0.00 | 0.02 | 0.02 | 45 | 1019.8 |
| 20260506230411 | 58 | 64 | 3.0 | 9.0 | 0.00 | 0.02 | 0.02 | 47 | 1019.8 |
| 20260506225411 | 57 | 18 | 4.0 | 10.0 | 0.00 | 0.02 | 0.02 | 45 | 1019.9 |
| 20260506224411 | 60 | 8 | 5.0 | 9.0 | 0.00 | 0.02 | 0.02 | 44 | 1019.7 |
| 20260506223408 | 59 | 17 | 3.0 | 8.0 | 0.00 | 0.02 | 0.02 | 46 | 1019.7 |
| 20260506222408 | 61 | 280 | 4.0 | 12.0 | 0.00 | 0.02 | 0.02 | 43 | 1019.7 |
| 20260506221402 | 59 | 32 | 3.0 | 11.0 | 0.00 | 0.02 | 0.02 | 47 | 1019.9 |
| 20260506220401 | 58 | 64 | 3.0 | 9.0 | 0.00 | 0.02 | 0.02 | 45 | 1019.9 |
| 20260506215400 | 59 | 20 | 3.0 | 11.0 | 0.00 | 0.02 | 0.02 | 47 | 1019.6 |
| 20260506214359 | 58 | 298 | 3.0 | 7.0 | 0.00 | 0.02 | 0.02 | 49 | 1019.9 |
| 20260506213354 | 58 | 17 | 5.0 | 8.0 | 0.00 | 0.02 | 0.02 | 48 | 1020.0 |
| 20260506212353 | 58 | 30 | 4.0 | 8.0 | 0.00 | 0.02 | 0.02 | 49 | 1020.2 |
| 20260506211350 | 57 | 289 | 1.0 | 9.0 | 0.00 | 0.02 | 0.02 | 50 | 1020.3 |
| 20260506210350 | 57 | 39 | 6.0 | 9.0 | 0.00 | 0.02 | 0.02 | 50 | 1020.3 |
| 20260506205349 | 57 | 333 | 4.0 | 12.0 | 0.00 | 0.02 | 0.02 | 51 | 1020.5 |
| 20260506204349 | 57 | 20 | 6.0 | 11.0 | 0.00 | 0.02 | 0.02 | 51 | 1020.8 |
| 20260506203349 | 58 | 15 | 4.0 | 10.0 | 0.00 | 0.02 | 0.02 | 52 | 1020.5 |
| 20260506202348 | 59 | 10 | 5.0 | 12.0 | 0.00 | 0.02 | 0.02 | 49 | 1020.6 |
| 20260506201347 | 57 | 313 | 6.0 | 10.0 | 0.00 | 0.02 | 0.02 | 50 | 1020.7 |
| 20260506200345 | 59 | 318 | 3.0 | 12.0 | 0.00 | 0.02 | 0.02 | 46 | 1020.8 |
| 20260506195344 | 57 | 31 | 7.0 | 13.0 | 0.00 | 0.02 | 0.02 | 50 | 1021.3 |
| 20260506194342 | 58 | 13 | 7.0 | 9.0 | 0.00 | 0.02 | 0.02 | 49 | 1021.2 |
| 20260506193342 | 57 | 343 | 3.0 | 8.0 | 0.00 | 0.02 | 0.02 | 51 | 1021.2 |
| 20260506192341 | 58 | 25 | 4.0 | 8.0 | 0.00 | 0.02 | 0.02 | 49 | 1021.2 |
| 20260506191340 | 57 | 80 | 3.0 | 9.0 | 0.00 | 0.02 | 0.02 | 48 | 1021.5 |
| 20260506190339 | 57 | 18 | 5.0 | 15.0 | 0.00 | 0.02 | 0.02 | 52 | 1021.4 |
| 20260506185340 | 56 | 74 | 5.0 | 10.0 | 0.00 | 0.02 | 0.02 | 53 | 1021.4 |
| 20260506184334 | 56 | 347 | 2.0 | 8.0 | 0.00 | 0.02 | 0.02 | 53 | 1021.7 |
| 20260506183332 | 56 | 326 | 4.0 | 9.0 | 0.00 | 0.02 | 0.02 | 55 | 1021.5 |
| 20260506182333 | 55 | 301 | 2.0 | 8.0 | 0.00 | 0.02 | 0.02 | 58 | 1021.5 |
| 20260506181328 | 56 | 34 | 5.0 | 10.0 | 0.00 | 0.02 | 0.02 | 56 | 1021.7 |
| 20260506180327 | 56 | 59 | 3.0 | 8.0 | 0.00 | 0.02 | 0.02 | 59 | 1021.7 |
| 20260506175326 | 55 | 32 | 4.0 | 9.0 | 0.00 | 0.02 | 0.02 | 54 | 1021.9 |
| 20260506174327 | 55 | 35 | 2.0 | 11.0 | 0.00 | 0.02 | 0.02 | 52 | 1021.9 |
| 20260506173327 | 55 | 103 | 7.0 | 12.0 | 0.00 | 0.02 | 0.02 | 55 | 1022.1 |
| 20260506172326 | 54 | 89 | 7.0 | 7.0 | 0.00 | 0.02 | 0.02 | 62 | 1022.2 |
| 20260506171327 | 54 | 345 | 2.0 | 7.0 | 0.00 | 0.02 | 0.02 | 64 | 1022.2 |
| 20260506170326 | 54 | 332 | 3.0 | 11.0 | 0.00 | 0.02 | 0.02 | 65 | 1022.2 |
| 20260506165323 | 53 | 115 | 4.0 | 13.0 | 0.00 | 0.02 | 0.02 | 66 | 1022.1 |
| 20260506164321 | 53 | 355 | 2.0 | 9.0 | 0.00 | 0.02 | 0.02 | 71 | 1022.1 |
| 20260506163319 | 53 | 352 | 4.0 | 7.0 | 0.00 | 0.02 | 0.02 | 68 | 1022.3 |
| 20260506162319 | 51 | 11 | 5.0 | 9.0 | 0.00 | 0.02 | 0.02 | 72 | 1022.1 |
| 20260506161319 | 50 | 43 | 2.0 | 6.0 | 0.00 | 0.02 | 0.02 | 74 | 1022.4 |
| 20260506160319 | 50 | 9 | 5.0 | 8.0 | 0.00 | 0.02 | 0.02 | 75 | 1022.4 |